Portada
METAR-TAF:

METAR-TAF

Aeroports :

Iguaçú, Argentina

latitud: 25-44S, longitud: 054-28W, altitud: 270 m

Observació

L'informe es va fer fa 16 minuts, a les 23:00 UTC
Vent 5 kt del Sud-Oest
Temperatura 20°C
Humitat 83%
Pressió 1008 hPa
Visibilitat 10 km o més
Escasses núvols a una alçada de 3000 ft
Cel ennuvolat a una alçada de 10000 ft
Cel ennuvolat a una alçada de 20000 ft

METAR: SARI 172300Z 23005KT 9999 FEW030 BKN100 BKN200 20/17 Q1008

Hora: 20:16 (23:16 UTC)

Pronòstic

L'informe es va fer fa 6 hores i 16 minuts, a les 17:00 UTC
Pronòstic vàlid del 17 a les 18 UTC al 18 a les 18 UTC
Vent 10 kt del Oest
Visibilitat 10 km o més
sense núvols per sota de 1500 mi sense presència de cumulonimbus.
Evolucionant progressivament
l' 18 a les 16 UTC al 18 a les 18 UTC
Visibilitat: 8000 m
Cel cobert a una alçada de 2500 ft
Escasses núvols a una alçada de 5000 ft, Cumulonimbus.
tempesta, pluja

TAF: SARI 171700Z 1718/1818 27010KT CAVOK TX29/1816Z TN20/1810Z BECMG 1816/1818 8000 -TSRA OVC025 FEW050CB

Observacions i pronòstics meteorològics de més de 4000 aeroports (METAR i TAF).

Les estacions disponibles són els punts grocs i vermells al mapa.

Posi el ratolí al punt desitjat per veure el nom de l'estació.

Feu clic per veure les observacions i els pronòstics meteorològics.

Per canviar el mapa: feu clic els botons verds amb una creu de color negre per apropar; al botó verd amb un guió per allunyar la imatge; o en les fletxes verdes per a mapes adjacents.


METAR-TAF: